sensor_id;sensor_type;location;lat;lon;timestamp;P1;durP1;ratioP1;P2;durP2;ratioP2
41952;SDS011;63613;28.200;112.870;2024-01-30T00:00:16;73.50;;;46.67;;
41952;SDS011;63613;28.200;112.870;2024-01-30T00:02:45;64.18;;;42.95;;
41952;SDS011;63613;28.200;112.870;2024-01-30T00:05:14;69.97;;;43.85;;
41952;SDS011;63613;28.200;112.870;2024-01-30T00:07:43;69.25;;;44.47;;
41952;SDS011;63613;28.200;112.870;2024-01-30T00:10:11;62.78;;;41.08;;
41952;SDS011;63613;28.200;112.870;2024-01-30T00:12:42;67.43;;;44.40;;
41952;SDS011;63613;28.200;112.870;2024-01-30T00:15:10;65.15;;;43.47;;
41952;SDS011;63613;28.200;112.870;2024-01-30T00:17:39;58.00;;;38.08;;
41952;SDS011;63613;28.200;112.870;2024-01-30T00:20:08;64.95;;;43.00;;
41952;SDS011;63613;28.200;112.870;2024-01-30T00:22:37;67.38;;;43.55;;
41952;SDS011;63613;28.200;112.870;2024-01-30T00:25:06;61.58;;;41.92;;
41952;SDS011;63613;28.200;112.870;2024-01-30T00:27:35;58.05;;;39.83;;
41952;SDS011;63613;28.200;112.870;2024-01-30T00:30:04;57.92;;;40.08;;
41952;SDS011;63613;28.200;112.870;2024-01-30T00:32:33;59.13;;;41.80;;
41952;SDS011;63613;28.200;112.870;2024-01-30T00:35:02;57.63;;;39.13;;
41952;SDS011;63613;28.200;112.870;2024-01-30T00:37:32;69.28;;;42.17;;
41952;SDS011;63613;28.200;112.870;2024-01-30T00:40:00;54.42;;;39.40;;
41952;SDS011;63613;28.200;112.870;2024-01-30T00:42:29;53.42;;;37.58;;
41952;SDS011;63613;28.200;112.870;2024-01-30T00:44:58;51.22;;;37.03;;
41952;SDS011;63613;28.200;112.870;2024-01-30T00:47:27;50.70;;;35.95;;
41952;SDS011;63613;28.200;112.870;2024-01-30T00:49:56;49.00;;;34.42;;
41952;SDS011;63613;28.200;112.870;2024-01-30T00:52:25;55.15;;;37.17;;
41952;SDS011;63613;28.200;112.870;2024-01-30T00:54:53;46.53;;;34.58;;
41952;SDS011;63613;28.200;112.870;2024-01-30T00:57:22;50.55;;;34.28;;
41952;SDS011;63613;28.200;112.870;2024-01-30T00:59:51;45.90;;;33.05;;
41952;SDS011;63613;28.200;112.870;2024-01-30T01:02:21;45.50;;;32.55;;
41952;SDS011;63613;28.200;112.870;2024-01-30T01:04:50;44.92;;;31.38;;
41952;SDS011;63613;28.200;112.870;2024-01-30T01:07:19;46.83;;;34.65;;
41952;SDS011;63613;28.200;112.870;2024-01-30T01:09:47;43.40;;;33.38;;
41952;SDS011;63613;28.200;112.870;2024-01-30T01:12:16;45.78;;;32.90;;
41952;SDS011;63613;28.200;112.870;2024-01-30T01:14:46;43.10;;;31.90;;
41952;SDS011;63613;28.200;112.870;2024-01-30T01:17:15;44.28;;;33.72;;
41952;SDS011;63613;28.200;112.870;2024-01-30T01:19:44;45.33;;;32.22;;
41952;SDS011;63613;28.200;112.870;2024-01-30T01:22:13;45.08;;;33.42;;
41952;SDS011;63613;28.200;112.870;2024-01-30T01:24:44;43.45;;;33.08;;
41952;SDS011;63613;28.200;112.870;2024-01-30T01:27:16;40.00;;;30.20;;
41952;SDS011;63613;28.200;112.870;2024-01-30T01:29:44;46.22;;;34.80;;
41952;SDS011;63613;28.200;112.870;2024-01-30T01:32:13;44.72;;;33.25;;
41952;SDS011;63613;28.200;112.870;2024-01-30T01:34:42;39.10;;;30.95;;
41952;SDS011;63613;28.200;112.870;2024-01-30T01:37:11;45.08;;;32.92;;
41952;SDS011;63613;28.200;112.870;2024-01-30T01:39:40;41.80;;;30.92;;
41952;SDS011;63613;28.200;112.870;2024-01-30T01:42:10;40.72;;;29.60;;
41952;SDS011;63613;28.200;112.870;2024-01-30T01:44:39;40.70;;;30.05;;
41952;SDS011;63613;28.200;112.870;2024-01-30T01:47:07;45.13;;;32.30;;
41952;SDS011;63613;28.200;112.870;2024-01-30T01:49:36;42.75;;;33.47;;
41952;SDS011;63613;28.200;112.870;2024-01-30T01:52:07;43.25;;;33.85;;
41952;SDS011;63613;28.200;112.870;2024-01-30T01:54:36;40.60;;;32.33;;
41952;SDS011;63613;28.200;112.870;2024-01-30T01:57:05;42.55;;;31.20;;
41952;SDS011;63613;28.200;112.870;2024-01-30T01:59:35;40.15;;;30.88;;
41952;SDS011;63613;28.200;112.870;2024-01-30T02:02:04;41.70;;;30.38;;
41952;SDS011;63613;28.200;112.870;2024-01-30T02:04:37;42.35;;;31.58;;
41952;SDS011;63613;28.200;112.870;2024-01-30T02:07:06;41.53;;;29.75;;
41952;SDS011;63613;28.200;112.870;2024-01-30T02:09:35;37.63;;;28.35;;
41952;SDS011;63613;28.200;112.870;2024-01-30T02:12:03;44.65;;;31.13;;
41952;SDS011;63613;28.200;112.870;2024-01-30T02:14:32;37.33;;;30.13;;
41952;SDS011;63613;28.200;112.870;2024-01-30T02:17:12;40.83;;;31.52;;
41952;SDS011;63613;28.200;112.870;2024-01-30T02:19:41;43.17;;;30.15;;
41952;SDS011;63613;28.200;112.870;2024-01-30T02:22:09;38.22;;;28.63;;
41952;SDS011;63613;28.200;112.870;2024-01-30T02:24:38;36.05;;;28.90;;
41952;SDS011;63613;28.200;112.870;2024-01-30T02:27:07;40.00;;;29.63;;
41952;SDS011;63613;28.200;112.870;2024-01-30T02:29:37;40.17;;;30.73;;
41952;SDS011;63613;28.200;112.870;2024-01-30T02:32:06;41.88;;;29.77;;
41952;SDS011;63613;28.200;112.870;2024-01-30T02:34:35;37.30;;;28.40;;
41952;SDS011;63613;28.200;112.870;2024-01-30T02:37:04;38.28;;;30.17;;
41952;SDS011;63613;28.200;112.870;2024-01-30T02:39:32;35.75;;;28.33;;
41952;SDS011;63613;28.200;112.870;2024-01-30T02:42:03;41.95;;;31.83;;
41952;SDS011;63613;28.200;112.870;2024-01-30T02:44:32;39.17;;;28.85;;
41952;SDS011;63613;28.200;112.870;2024-01-30T02:47:00;37.13;;;29.58;;
41952;SDS011;63613;28.200;112.870;2024-01-30T02:49:29;38.35;;;28.67;;
41952;SDS011;63613;28.200;112.870;2024-01-30T02:51:58;38.80;;;30.77;;
41952;SDS011;63613;28.200;112.870;2024-01-30T02:54:27;36.88;;;29.42;;
41952;SDS011;63613;28.200;112.870;2024-01-30T02:56:56;39.00;;;29.55;;
41952;SDS011;63613;28.200;112.870;2024-01-30T02:59:25;36.10;;;27.50;;
41952;SDS011;63613;28.200;112.870;2024-01-30T03:01:54;38.67;;;30.63;;
41952;SDS011;63613;28.200;112.870;2024-01-30T03:04:22;35.88;;;28.92;;
41952;SDS011;63613;28.200;112.870;2024-01-30T03:06:52;34.33;;;27.35;;
41952;SDS011;63613;28.200;112.870;2024-01-30T03:09:20;39.08;;;28.70;;
41952;SDS011;63613;28.200;112.870;2024-01-30T03:11:49;38.17;;;29.02;;
41952;SDS011;63613;28.200;112.870;2024-01-30T03:14:18;37.22;;;29.20;;
41952;SDS011;63613;28.200;112.870;2024-01-30T03:16:46;35.00;;;27.33;;
41952;SDS011;63613;28.200;112.870;2024-01-30T03:19:17;35.13;;;28.45;;
41952;SDS011;63613;28.200;112.870;2024-01-30T03:21:45;34.83;;;27.75;;
41952;SDS011;63613;28.200;112.870;2024-01-30T03:24:14;38.72;;;29.90;;
41952;SDS011;63613;28.200;112.870;2024-01-30T03:26:43;32.58;;;28.20;;
41952;SDS011;63613;28.200;112.870;2024-01-30T03:29:12;33.03;;;27.05;;
41952;SDS011;63613;28.200;112.870;2024-01-30T03:31:43;39.35;;;28.98;;
41952;SDS011;63613;28.200;112.870;2024-01-30T03:34:12;40.25;;;30.85;;
41952;SDS011;63613;28.200;112.870;2024-01-30T03:36:40;38.47;;;30.27;;
41952;SDS011;63613;28.200;112.870;2024-01-30T03:39:09;37.08;;;28.77;;
41952;SDS011;63613;28.200;112.870;2024-01-30T03:41:38;40.33;;;29.08;;
41952;SDS011;63613;28.200;112.870;2024-01-30T03:44:11;37.70;;;30.15;;
41952;SDS011;63613;28.200;112.870;2024-01-30T03:46:40;35.65;;;29.50;;
41952;SDS011;63613;28.200;112.870;2024-01-30T03:49:09;39.13;;;30.95;;
41952;SDS011;63613;28.200;112.870;2024-01-30T03:51:38;36.50;;;29.75;;
41952;SDS011;63613;28.200;112.870;2024-01-30T03:54:06;37.47;;;30.27;;
41952;SDS011;63613;28.200;112.870;2024-01-30T03:56:37;40.28;;;31.52;;
41952;SDS011;63613;28.200;112.870;2024-01-30T03:59:08;35.92;;;29.65;;
41952;SDS011;63613;28.200;112.870;2024-01-30T04:01:38;39.22;;;28.80;;
41952;SDS011;63613;28.200;112.870;2024-01-30T04:04:07;40.20;;;29.65;;
41952;SDS011;63613;28.200;112.870;2024-01-30T04:06:35;33.15;;;26.45;;
41952;SDS011;63613;28.200;112.870;2024-01-30T04:09:04;35.10;;;27.50;;
41952;SDS011;63613;28.200;112.870;2024-01-30T04:11:34;36.38;;;29.17;;
41952;SDS011;63613;28.200;112.870;2024-01-30T04:14:03;36.92;;;26.95;;
41952;SDS011;63613;28.200;112.870;2024-01-30T04:16:32;38.75;;;28.15;;
41952;SDS011;63613;28.200;112.870;2024-01-30T04:19:01;37.75;;;29.00;;
41952;SDS011;63613;28.200;112.870;2024-01-30T04:21:29;38.30;;;29.40;;
41952;SDS011;63613;28.200;112.870;2024-01-30T04:23:59;39.20;;;29.63;;
41952;SDS011;63613;28.200;112.870;2024-01-30T04:26:28;38.53;;;29.35;;
41952;SDS011;63613;28.200;112.870;2024-01-30T04:28:57;37.00;;;27.88;;
41952;SDS011;63613;28.200;112.870;2024-01-30T04:31:26;38.67;;;29.33;;
41952;SDS011;63613;28.200;112.870;2024-01-30T04:33:55;37.90;;;29.60;;
41952;SDS011;63613;28.200;112.870;2024-01-30T04:36:25;34.00;;;28.02;;
41952;SDS011;63613;28.200;112.870;2024-01-30T04:38:54;39.13;;;29.75;;
41952;SDS011;63613;28.200;112.870;2024-01-30T04:41:24;40.30;;;31.38;;
41952;SDS011;63613;28.200;112.870;2024-01-30T04:43:57;39.63;;;29.30;;
41952;SDS011;63613;28.200;112.870;2024-01-30T04:46:26;36.45;;;29.15;;
41952;SDS011;63613;28.200;112.870;2024-01-30T04:48:55;38.08;;;30.08;;
41952;SDS011;63613;28.200;112.870;2024-01-30T04:51:24;36.58;;;29.23;;
41952;SDS011;63613;28.200;112.870;2024-01-30T04:53:53;41.78;;;31.38;;
41952;SDS011;63613;28.200;112.870;2024-01-30T04:56:22;37.10;;;29.08;;
41952;SDS011;63613;28.200;112.870;2024-01-30T04:58:53;37.00;;;28.98;;
41952;SDS011;63613;28.200;112.870;2024-01-30T05:01:22;36.45;;;28.33;;
41952;SDS011;63613;28.200;112.870;2024-01-30T05:03:51;36.92;;;28.63;;
41952;SDS011;63613;28.200;112.870;2024-01-30T05:06:27;35.75;;;29.30;;
41952;SDS011;63613;28.200;112.870;2024-01-30T05:08:58;38.58;;;29.33;;
41952;SDS011;63613;28.200;112.870;2024-01-30T05:11:27;39.13;;;30.17;;
41952;SDS011;63613;28.200;112.870;2024-01-30T05:13:56;37.92;;;28.27;;
41952;SDS011;63613;28.200;112.870;2024-01-30T05:16:25;35.53;;;28.55;;
41952;SDS011;63613;28.200;112.870;2024-01-30T05:18:54;42.53;;;30.05;;
41952;SDS011;63613;28.200;112.870;2024-01-30T05:21:24;40.90;;;31.50;;
41952;SDS011;63613;28.200;112.870;2024-01-30T05:23:53;45.85;;;30.10;;
41952;SDS011;63613;28.200;112.870;2024-01-30T05:26:22;38.38;;;30.23;;
41952;SDS011;63613;28.200;112.870;2024-01-30T05:28:52;39.13;;;30.45;;
41952;SDS011;63613;28.200;112.870;2024-01-30T05:31:21;38.20;;;32.38;;
41952;SDS011;63613;28.200;112.870;2024-01-30T05:33:53;42.70;;;32.28;;
41952;SDS011;63613;28.200;112.870;2024-01-30T05:36:22;39.83;;;31.58;;
41952;SDS011;63613;28.200;112.870;2024-01-30T05:38:51;41.42;;;31.73;;
41952;SDS011;63613;28.200;112.870;2024-01-30T05:41:20;44.85;;;32.35;;
41952;SDS011;63613;28.200;112.870;2024-01-30T05:43:48;38.65;;;30.88;;
41952;SDS011;63613;28.200;112.870;2024-01-30T05:46:19;38.05;;;29.45;;
41952;SDS011;63613;28.200;112.870;2024-01-30T05:48:48;41.10;;;31.05;;
41952;SDS011;63613;28.200;112.870;2024-01-30T05:51:16;39.05;;;30.15;;
41952;SDS011;63613;28.200;112.870;2024-01-30T05:53:45;42.55;;;30.58;;
41952;SDS011;63613;28.200;112.870;2024-01-30T05:56:14;40.15;;;30.58;;
41952;SDS011;63613;28.200;112.870;2024-01-30T05:58:44;37.45;;;29.05;;
41952;SDS011;63613;28.200;112.870;2024-01-30T06:01:13;37.88;;;29.33;;
41952;SDS011;63613;28.200;112.870;2024-01-30T06:03:43;39.42;;;32.55;;
41952;SDS011;63613;28.200;112.870;2024-01-30T06:06:12;35.75;;;29.30;;
41952;SDS011;63613;28.200;112.870;2024-01-30T06:08:41;38.53;;;30.13;;
41952;SDS011;63613;28.200;112.870;2024-01-30T06:11:11;33.22;;;27.90;;
41952;SDS011;63613;28.200;112.870;2024-01-30T06:13:40;35.95;;;27.35;;
41952;SDS011;63613;28.200;112.870;2024-01-30T06:16:09;35.45;;;29.20;;
41952;SDS011;63613;28.200;112.870;2024-01-30T06:18:38;35.30;;;28.65;;
41952;SDS011;63613;28.200;112.870;2024-01-30T06:21:07;35.63;;;29.35;;
41952;SDS011;63613;28.200;112.870;2024-01-30T06:23:37;35.65;;;27.90;;
41952;SDS011;63613;28.200;112.870;2024-01-30T06:26:07;35.53;;;28.98;;
41952;SDS011;63613;28.200;112.870;2024-01-30T06:28:36;35.30;;;29.48;;
41952;SDS011;63613;28.200;112.870;2024-01-30T06:31:05;40.83;;;29.42;;
41952;SDS011;63613;28.200;112.870;2024-01-30T06:33:34;36.30;;;30.00;;
41952;SDS011;63613;28.200;112.870;2024-01-30T06:36:04;45.17;;;30.63;;
41952;SDS011;63613;28.200;112.870;2024-01-30T06:38:33;40.17;;;30.13;;
41952;SDS011;63613;28.200;112.870;2024-01-30T06:41:01;38.40;;;28.80;;
41952;SDS011;63613;28.200;112.870;2024-01-30T06:43:30;38.97;;;29.98;;
41952;SDS011;63613;28.200;112.870;2024-01-30T06:45:59;39.88;;;29.25;;
41952;SDS011;63613;28.200;112.870;2024-01-30T06:48:30;39.55;;;29.52;;
41952;SDS011;63613;28.200;112.870;2024-01-30T06:50:59;40.13;;;30.58;;
41952;SDS011;63613;28.200;112.870;2024-01-30T06:53:27;35.08;;;28.83;;
41952;SDS011;63613;28.200;112.870;2024-01-30T06:55:56;37.72;;;31.02;;
41952;SDS011;63613;28.200;112.870;2024-01-30T06:58:25;34.25;;;29.25;;
41952;SDS011;63613;28.200;112.870;2024-01-30T07:00:55;38.13;;;28.92;;
41952;SDS011;63613;28.200;112.870;2024-01-30T07:03:24;36.67;;;28.45;;
41952;SDS011;63613;28.200;112.870;2024-01-30T07:05:54;32.55;;;26.65;;
41952;SDS011;63613;28.200;112.870;2024-01-30T07:08:23;32.47;;;26.98;;
41952;SDS011;63613;28.200;112.870;2024-01-30T07:10:52;34.50;;;28.63;;
41952;SDS011;63613;28.200;112.870;2024-01-30T07:13:24;38.55;;;28.63;;
41952;SDS011;63613;28.200;112.870;2024-01-30T07:15:53;34.47;;;27.67;;
41952;SDS011;63613;28.200;112.870;2024-01-30T07:18:22;39.50;;;28.38;;
41952;SDS011;63613;28.200;112.870;2024-01-30T07:20:51;38.72;;;28.70;;
41952;SDS011;63613;28.200;112.870;2024-01-30T07:23:19;37.45;;;29.88;;
41952;SDS011;63613;28.200;112.870;2024-01-30T07:25:50;41.28;;;31.45;;
41952;SDS011;63613;28.200;112.870;2024-01-30T07:28:19;40.13;;;31.50;;
41952;SDS011;63613;28.200;112.870;2024-01-30T07:30:48;43.45;;;31.38;;
41952;SDS011;63613;28.200;112.870;2024-01-30T07:33:17;36.00;;;29.35;;
41952;SDS011;63613;28.200;112.870;2024-01-30T07:35:46;44.85;;;29.88;;
41952;SDS011;63613;28.200;112.870;2024-01-30T07:38:19;40.20;;;29.75;;
41952;SDS011;63613;28.200;112.870;2024-01-30T07:40:48;39.20;;;28.92;;
41952;SDS011;63613;28.200;112.870;2024-01-30T07:43:17;40.17;;;28.55;;
41952;SDS011;63613;28.200;112.870;2024-01-30T07:45:46;39.30;;;30.48;;
41952;SDS011;63613;28.200;112.870;2024-01-30T07:48:15;37.60;;;29.83;;
41952;SDS011;63613;28.200;112.870;2024-01-30T07:50:45;34.85;;;28.48;;
41952;SDS011;63613;28.200;112.870;2024-01-30T07:53:13;41.03;;;30.48;;
41952;SDS011;63613;28.200;112.870;2024-01-30T07:55:42;40.05;;;31.25;;
41952;SDS011;63613;28.200;112.870;2024-01-30T07:58:12;43.10;;;32.97;;
41952;SDS011;63613;28.200;112.870;2024-01-30T08:00:43;48.40;;;38.88;;
41952;SDS011;63613;28.200;112.870;2024-01-30T08:03:12;43.90;;;35.22;;
41952;SDS011;63613;28.200;112.870;2024-01-30T08:05:43;40.22;;;32.72;;
41952;SDS011;63613;28.200;112.870;2024-01-30T08:08:12;42.47;;;33.95;;
41952;SDS011;63613;28.200;112.870;2024-01-30T08:10:41;42.50;;;33.13;;
41952;SDS011;63613;28.200;112.870;2024-01-30T08:13:11;42.25;;;33.05;;
41952;SDS011;63613;28.200;112.870;2024-01-30T08:15:40;45.10;;;34.55;;
41952;SDS011;63613;28.200;112.870;2024-01-30T08:18:09;47.22;;;36.47;;
41952;SDS011;63613;28.200;112.870;2024-01-30T08:20:38;44.90;;;33.38;;
41952;SDS011;63613;28.200;112.870;2024-01-30T08:23:07;45.70;;;35.67;;
41952;SDS011;63613;28.200;112.870;2024-01-30T08:25:38;46.53;;;35.67;;
41952;SDS011;63613;28.200;112.870;2024-01-30T08:28:06;49.35;;;36.97;;
41952;SDS011;63613;28.200;112.870;2024-01-30T08:30:35;45.03;;;34.63;;
41952;SDS011;63613;28.200;112.870;2024-01-30T08:33:05;44.90;;;33.58;;
41952;SDS011;63613;28.200;112.870;2024-01-30T08:35:34;44.05;;;35.55;;
41952;SDS011;63613;28.200;112.870;2024-01-30T08:38:04;48.80;;;37.17;;
41952;SDS011;63613;28.200;112.870;2024-01-30T08:40:33;45.65;;;35.08;;
41952;SDS011;63613;28.200;112.870;2024-01-30T08:43:02;51.05;;;36.58;;
41952;SDS011;63613;28.200;112.870;2024-01-30T08:45:31;46.88;;;35.17;;
41952;SDS011;63613;28.200;112.870;2024-01-30T08:48:00;52.85;;;38.03;;
41952;SDS011;63613;28.200;112.870;2024-01-30T08:50:29;47.80;;;36.65;;
41952;SDS011;63613;28.200;112.870;2024-01-30T08:52:58;46.03;;;36.65;;
41952;SDS011;63613;28.200;112.870;2024-01-30T08:55:27;52.20;;;38.50;;
41952;SDS011;63613;28.200;112.870;2024-01-30T08:57:56;50.97;;;37.17;;
41952;SDS011;63613;28.200;112.870;2024-01-30T09:00:25;49.67;;;36.20;;
41952;SDS011;63613;28.200;112.870;2024-01-30T09:02:55;56.35;;;39.42;;
41952;SDS011;63613;28.200;112.870;2024-01-30T09:05:24;47.95;;;36.85;;
41952;SDS011;63613;28.200;112.870;2024-01-30T09:07:53;58.90;;;41.88;;
41952;SDS011;63613;28.200;112.870;2024-01-30T09:10:22;54.15;;;39.90;;
41952;SDS011;63613;28.200;112.870;2024-01-30T09:12:51;58.75;;;42.88;;
41952;SDS011;63613;28.200;112.870;2024-01-30T09:15:21;62.45;;;45.65;;
41952;SDS011;63613;28.200;112.870;2024-01-30T09:17:50;59.88;;;45.33;;
41952;SDS011;63613;28.200;112.870;2024-01-30T09:20:19;62.05;;;43.00;;
41952;SDS011;63613;28.200;112.870;2024-01-30T09:22:49;55.67;;;41.88;;
41952;SDS011;63613;28.200;112.870;2024-01-30T09:25:17;58.00;;;43.33;;
41952;SDS011;63613;28.200;112.870;2024-01-30T09:27:47;57.78;;;42.72;;
41952;SDS011;63613;28.200;112.870;2024-01-30T09:30:16;67.53;;;46.28;;
41952;SDS011;63613;28.200;112.870;2024-01-30T09:32:45;64.00;;;45.50;;
41952;SDS011;63613;28.200;112.870;2024-01-30T09:35:14;61.85;;;43.60;;
41952;SDS011;63613;28.200;112.870;2024-01-30T09:37:43;58.60;;;42.38;;
41952;SDS011;63613;28.200;112.870;2024-01-30T09:40:12;59.65;;;42.70;;
41952;SDS011;63613;28.200;112.870;2024-01-30T09:42:46;56.35;;;41.05;;
41952;SDS011;63613;28.200;112.870;2024-01-30T09:45:18;56.97;;;44.03;;
41952;SDS011;63613;28.200;112.870;2024-01-30T09:47:47;59.22;;;44.47;;
41952;SDS011;63613;28.200;112.870;2024-01-30T09:50:18;61.40;;;44.88;;
41952;SDS011;63613;28.200;112.870;2024-01-30T09:52:47;58.17;;;45.28;;
41952;SDS011;63613;28.200;112.870;2024-01-30T09:55:16;59.80;;;44.03;;
41952;SDS011;63613;28.200;112.870;2024-01-30T09:57:45;66.63;;;50.78;;
41952;SDS011;63613;28.200;112.870;2024-01-30T10:00:14;66.65;;;45.72;;
41952;SDS011;63613;28.200;112.870;2024-01-30T10:02:44;66.35;;;47.47;;
41952;SDS011;63613;28.200;112.870;2024-01-30T10:05:15;69.63;;;49.80;;
41952;SDS011;63613;28.200;112.870;2024-01-30T10:07:52;66.65;;;51.42;;
41952;SDS011;63613;28.200;112.870;2024-01-30T10:12:51;75.78;;;52.55;;
41952;SDS011;63613;28.200;112.870;2024-01-30T10:15:20;68.60;;;49.20;;
41952;SDS011;63613;28.200;112.870;2024-01-30T10:17:49;72.30;;;49.42;;
41952;SDS011;63613;28.200;112.870;2024-01-30T10:20:18;68.18;;;50.85;;
41952;SDS011;63613;28.200;112.870;2024-01-30T10:22:49;70.10;;;51.38;;
41952;SDS011;63613;28.200;112.870;2024-01-30T10:25:21;83.85;;;58.85;;
41952;SDS011;63613;28.200;112.870;2024-01-30T10:27:53;80.53;;;56.05;;
41952;SDS011;63613;28.200;112.870;2024-01-30T10:30:22;83.85;;;56.58;;
41952;SDS011;63613;28.200;112.870;2024-01-30T10:32:51;83.43;;;56.00;;
41952;SDS011;63613;28.200;112.870;2024-01-30T10:35:20;77.15;;;53.33;;
41952;SDS011;63613;28.200;112.870;2024-01-30T10:37:51;80.95;;;58.10;;
41952;SDS011;63613;28.200;112.870;2024-01-30T10:40:22;78.68;;;55.38;;
41952;SDS011;63613;28.200;112.870;2024-01-30T10:42:56;81.88;;;57.38;;
41952;SDS011;63613;28.200;112.870;2024-01-30T10:45:28;73.70;;;51.72;;
41952;SDS011;63613;28.200;112.870;2024-01-30T10:48:00;65.30;;;49.28;;
41952;SDS011;63613;28.200;112.870;2024-01-30T10:50:31;67.63;;;49.10;;
41952;SDS011;63613;28.200;112.870;2024-01-30T10:53:02;74.18;;;52.50;;
41952;SDS011;63613;28.200;112.870;2024-01-30T10:55:34;68.70;;;49.58;;
41952;SDS011;63613;28.200;112.870;2024-01-30T10:58:04;63.38;;;47.63;;
41952;SDS011;63613;28.200;112.870;2024-01-30T11:00:33;71.18;;;50.78;;
41952;SDS011;63613;28.200;112.870;2024-01-30T11:03:02;62.00;;;47.03;;
41952;SDS011;63613;28.200;112.870;2024-01-30T11:05:32;68.07;;;49.50;;
41952;SDS011;63613;28.200;112.870;2024-01-30T11:08:13;73.50;;;51.42;;
41952;SDS011;63613;28.200;112.870;2024-01-30T11:10:49;64.30;;;47.58;;
41952;SDS011;63613;28.200;112.870;2024-01-30T11:13:21;74.13;;;51.20;;
41952;SDS011;63613;28.200;112.870;2024-01-30T11:15:53;80.35;;;55.30;;
41952;SDS011;63613;28.200;112.870;2024-01-30T11:18:24;76.43;;;52.38;;
41952;SDS011;63613;28.200;112.870;2024-01-30T11:20:56;71.78;;;52.00;;
41952;SDS011;63613;28.200;112.870;2024-01-30T11:23:28;78.72;;;55.58;;
41952;SDS011;63613;28.200;112.870;2024-01-30T11:25:57;74.13;;;52.03;;
41952;SDS011;63613;28.200;112.870;2024-01-30T11:28:33;76.53;;;55.55;;
41952;SDS011;63613;28.200;112.870;2024-01-30T11:31:05;76.55;;;53.95;;
41952;SDS011;63613;28.200;112.870;2024-01-30T11:33:35;99.13;;;62.33;;
41952;SDS011;63613;28.200;112.870;2024-01-30T11:36:04;75.55;;;54.00;;
41952;SDS011;63613;28.200;112.870;2024-01-30T11:38:35;190.23;;;135.27;;
41952;SDS011;63613;28.200;112.870;2024-01-30T11:41:04;137.35;;;87.70;;
41952;SDS011;63613;28.200;112.870;2024-01-30T11:43:33;109.45;;;75.00;;
41952;SDS011;63613;28.200;112.870;2024-01-30T11:46:05;92.70;;;67.28;;
41952;SDS011;63613;28.200;112.870;2024-01-30T11:48:37;100.43;;;65.13;;
41952;SDS011;63613;28.200;112.870;2024-01-30T11:51:06;85.35;;;60.55;;
41952;SDS011;63613;28.200;112.870;2024-01-30T11:53:35;87.30;;;60.80;;
41952;SDS011;63613;28.200;112.870;2024-01-30T11:56:05;84.47;;;57.53;;
41952;SDS011;63613;28.200;112.870;2024-01-30T11:58:34;89.55;;;60.90;;
41952;SDS011;63613;28.200;112.870;2024-01-30T12:01:04;89.95;;;62.08;;
41952;SDS011;63613;28.200;112.870;2024-01-30T12:03:34;153.73;;;106.30;;
41952;SDS011;63613;28.200;112.870;2024-01-30T12:06:03;105.03;;;71.28;;
41952;SDS011;63613;28.200;112.870;2024-01-30T12:08:41;85.53;;;60.72;;
41952;SDS011;63613;28.200;112.870;2024-01-30T12:11:11;93.55;;;61.72;;
41952;SDS011;63613;28.200;112.870;2024-01-30T12:13:42;91.88;;;61.50;;
41952;SDS011;63613;28.200;112.870;2024-01-30T12:16:11;90.18;;;59.40;;
41952;SDS011;63613;28.200;112.870;2024-01-30T12:18:40;89.78;;;58.92;;
41952;SDS011;63613;28.200;112.870;2024-01-30T12:21:09;98.85;;;61.42;;
41952;SDS011;63613;28.200;112.870;2024-01-30T12:23:40;82.05;;;54.38;;
41952;SDS011;63613;28.200;112.870;2024-01-30T12:26:09;91.80;;;59.10;;
41952;SDS011;63613;28.200;112.870;2024-01-30T12:28:47;87.78;;;58.05;;
41952;SDS011;63613;28.200;112.870;2024-01-30T12:31:16;103.07;;;61.97;;
41952;SDS011;63613;28.200;112.870;2024-01-30T12:33:53;100.72;;;63.10;;
41952;SDS011;63613;28.200;112.870;2024-01-30T12:36:22;108.88;;;66.63;;
41952;SDS011;63613;28.200;112.870;2024-01-30T12:38:52;95.78;;;61.67;;
41952;SDS011;63613;28.200;112.870;2024-01-30T12:41:21;93.60;;;59.60;;
41952;SDS011;63613;28.200;112.870;2024-01-30T12:43:56;110.25;;;62.42;;
41952;SDS011;63613;28.200;112.870;2024-01-30T12:46:27;97.65;;;59.10;;
41952;SDS011;63613;28.200;112.870;2024-01-30T12:48:56;115.75;;;67.20;;
41952;SDS011;63613;28.200;112.870;2024-01-30T12:51:25;97.60;;;62.20;;
41952;SDS011;63613;28.200;112.870;2024-01-30T12:53:55;100.47;;;60.97;;
41952;SDS011;63613;28.200;112.870;2024-01-30T12:56:24;100.82;;;60.78;;
41952;SDS011;63613;28.200;112.870;2024-01-30T12:58:53;107.45;;;66.70;;
41952;SDS011;63613;28.200;112.870;2024-01-30T13:01:22;158.73;;;74.95;;
41952;SDS011;63613;28.200;112.870;2024-01-30T13:03:52;100.57;;;65.25;;
41952;SDS011;63613;28.200;112.870;2024-01-30T13:06:24;124.22;;;66.38;;
41952;SDS011;63613;28.200;112.870;2024-01-30T13:08:53;94.82;;;59.55;;
41952;SDS011;63613;28.200;112.870;2024-01-30T13:11:22;109.18;;;67.72;;
41952;SDS011;63613;28.200;112.870;2024-01-30T13:13:52;103.78;;;60.78;;
41952;SDS011;63613;28.200;112.870;2024-01-30T13:16:20;98.40;;;60.30;;
41952;SDS011;63613;28.200;112.870;2024-01-30T13:18:50;87.00;;;56.47;;
41952;SDS011;63613;28.200;112.870;2024-01-30T13:21:22;94.50;;;58.55;;
41952;SDS011;63613;28.200;112.870;2024-01-30T13:23:51;106.05;;;64.22;;
41952;SDS011;63613;28.200;112.870;2024-01-30T13:26:20;107.82;;;66.55;;
41952;SDS011;63613;28.200;112.870;2024-01-30T13:28:49;119.57;;;68.13;;
41952;SDS011;63613;28.200;112.870;2024-01-30T13:31:20;104.30;;;64.35;;
41952;SDS011;63613;28.200;112.870;2024-01-30T13:33:49;106.30;;;63.83;;
41952;SDS011;63613;28.200;112.870;2024-01-30T13:36:18;103.68;;;64.88;;
41952;SDS011;63613;28.200;112.870;2024-01-30T13:38:48;93.07;;;57.85;;
41952;SDS011;63613;28.200;112.870;2024-01-30T13:41:19;114.68;;;67.57;;
41952;SDS011;63613;28.200;112.870;2024-01-30T13:43:49;106.25;;;67.25;;
41952;SDS011;63613;28.200;112.870;2024-01-30T13:46:18;129.55;;;71.10;;
41952;SDS011;63613;28.200;112.870;2024-01-30T13:48:47;104.68;;;64.63;;
41952;SDS011;63613;28.200;112.870;2024-01-30T13:51:16;97.45;;;62.90;;
41952;SDS011;63613;28.200;112.870;2024-01-30T13:53:46;100.72;;;62.10;;
41952;SDS011;63613;28.200;112.870;2024-01-30T13:56:16;113.13;;;69.50;;
41952;SDS011;63613;28.200;112.870;2024-01-30T13:58:48;100.65;;;63.22;;
41952;SDS011;63613;28.200;112.870;2024-01-30T14:01:18;107.20;;;63.78;;
41952;SDS011;63613;28.200;112.870;2024-01-30T14:03:52;102.00;;;66.03;;
41952;SDS011;63613;28.200;112.870;2024-01-30T14:06:22;123.13;;;71.03;;
41952;SDS011;63613;28.200;112.870;2024-01-30T14:08:53;114.13;;;71.55;;
41952;SDS011;63613;28.200;112.870;2024-01-30T14:11:22;101.38;;;63.85;;